Time;durP1;ratioP1;P1;durP2;ratioP2;P2;SDS_P1;SDS_P2;PMS_P1;PMS_P2;Temp;Humidity;BMP_temperature;BMP_pressure;BME280_temperature;BME280_humidity;BME280_pressure;Samples;Min_cycle;Max_cycle;Signal;HPM_P1;HPM_P2
2023/10/14 00:02:15;;;;;;;;;;;;;;;17.05;81.31;99554.64;105141;1262;69267;-60
2023/10/14 00:04:44;;;;;;;;;;;;;;;17.03;81.26;99553.38;105088;1259;73852;-60
2023/10/14 00:07:17;;;;;;;;;;;;;;;17.00;81.01;99545.28;105113;1260;82105;-60
2023/10/14 00:09:49;;;;;;;;;;;;;;;16.98;80.90;99541.24;105085;1262;71042;-60
2023/10/14 00:12:20;;;;;;;;;;;;;;;16.96;80.76;99529.88;105083;1262;69177;-60
2023/10/14 00:14:53;;;;;;;;;;;;;;;16.96;80.69;99521.74;105065;1260;69199;-60
2023/10/14 00:17:22;;;;;;;;;;;;;;;16.94;80.54;99512.20;105117;1259;72678;-60
2023/10/14 00:19:50;;;;;;;;;;;;;;;16.96;80.48;99505.89;105129;1259;81929;-60
2023/10/14 00:22:18;;;;;;;;;;;;;;;17.00;80.38;99505.41;105073;1262;72867;-60
2023/10/14 00:24:48;;;;;;;;;;;;;;;17.02;80.10;99502.98;105076;1259;69131;-60
2023/10/14 00:27:18;;;;;;;;;;;;;;;17.03;79.98;99502.55;105091;1259;69195;-60
2023/10/14 00:29:47;;;;;;;;;;;;;;;17.03;79.72;99498.65;105123;1262;74808;-60
2023/10/14 00:32:15;;;;;;;;;;;;;;;17.03;79.56;99497.54;105096;1259;82885;-60
2023/10/14 00:34:43;;;;;;;;;;;;;;;17.03;79.29;99497.73;105115;1260;73056;-60
2023/10/14 00:37:12;;;;;;;;;;;;;;;16.99;79.02;99496.86;105105;1260;70587;-60
2023/10/14 00:39:40;;;;;;;;;;;;;;;16.94;78.85;99492.79;105056;1259;69227;-60
2023/10/14 00:42:08;;;;;;;;;;;;;;;16.92;78.88;99488.73;105050;1259;74006;-60
2023/10/14 00:44:39;;;;;;;;;;;;;;;16.93;78.79;99482.31;104981;1264;82656;-60
2023/10/14 00:47:15;;;;;;;;;;;;;;;16.93;78.45;99481.73;105096;1260;71947;-60
2023/10/14 00:49:43;;;;;;;;;;;;;;;16.92;78.36;99478.62;105082;1259;69117;-60
2023/10/14 00:52:18;;;;;;;;;;;;;;;16.92;78.36;99477.55;105006;1259;69155;-60
2023/10/14 00:54:58;;;;;;;;;;;;;;;16.92;78.06;99478.33;104926;1265;72536;-60
2023/10/14 00:57:38;;;;;;;;;;;;;;;16.89;77.93;99475.33;104991;1262;80956;-60
2023/10/14 01:00:11;;;;;;;;;;;;;;;16.85;77.73;99474.09;105117;1260;70680;-60
2023/10/14 01:02:40;;;;;;;;;;;;;;;16.80;77.55;99475.02;105125;1260;69116;-60
2023/10/14 01:05:14;;;;;;;;;;;;;;;16.75;77.48;99470.43;105041;1260;69186;-60
2023/10/14 01:07:42;;;;;;;;;;;;;;;16.71;77.34;99464.56;105112;1260;73924;-60
2023/10/14 01:10:12;;;;;;;;;;;;;;;16.69;77.29;99460.84;105102;1262;81485;-60
2023/10/14 01:12:45;;;;;;;;;;;;;;;16.67;77.33;99457.10;105033;1260;73128;-60
2023/10/14 01:17:48;;;;;;;;;;;;;;;16.67;76.94;99447.03;105157;1262;69214;-60
2023/10/14 01:22:57;;;;;;;;;;;;;;;16.72;76.90;99436.40;105054;1261;81960;-60
2023/10/14 01:25:32;;;;;;;;;;;;;;;16.74;76.67;99431.34;105094;1260;71575;-60
2023/10/14 01:28:09;;;;;;;;;;;;;;;16.75;76.50;99424.57;105049;1259;69474;-60
2023/10/14 01:30:42;;;;;;;;;;;;;;;16.75;76.37;99421.56;105028;1264;69128;-60
2023/10/14 01:33:15;;;;;;;;;;;;;;;16.75;76.15;99420.30;105027;1259;73826;-60
2023/10/14 01:35:45;;;;;;;;;;;;;;;16.77;76.03;99413.34;105074;1262;82720;-60
2023/10/14 01:38:13;;;;;;;;;;;;;;;16.77;75.73;99411.38;105115;1259;72120;-60
2023/10/14 01:40:48;;;;;;;;;;;;;;;16.76;75.56;99405.83;104966;1262;69122;-60
2023/10/14 01:43:17;;;;;;;;;;;;;;;16.74;75.47;99405.07;105050;1260;69209;-60
2023/10/14 01:45:59;;;;;;;;;;;;;;;16.73;75.47;99397.16;105122;1259;73369;-60
2023/10/14 01:48:31;;;;;;;;;;;;;;;16.75;75.33;99396.33;105085;1262;82501;-60
2023/10/14 01:50:59;;;;;;;;;;;;;;;16.76;75.09;99394.67;105062;1259;73094;-60
2023/10/14 01:53:31;;;;;;;;;;;;;;;16.75;75.00;99389.64;105047;1265;69216;-60
2023/10/14 01:56:01;;;;;;;;;;;;;;;16.73;74.92;99388.34;105163;1260;69209;-60
2023/10/14 01:58:30;;;;;;;;;;;;;;;16.71;74.65;99390.81;105159;1259;75105;-60
2023/10/14 02:01:23;;;;;;;;;;;;;;;16.70;74.71;99386.85;105041;1263;81393;-60
2023/10/14 02:03:51;;;;;;;;;;;;;;;16.69;74.61;99381.14;105053;1260;73643;-60
2023/10/14 02:06:26;;;;;;;;;;;;;;;16.69;74.50;99376.68;105040;1265;69350;-60
2023/10/14 02:08:57;;;;;;;;;;;;;;;16.71;74.55;99377.73;105126;1259;69297;-60
2023/10/14 02:11:33;;;;;;;;;;;;;;;16.76;74.54;99376.52;105108;1262;74107;-60
2023/10/14 02:14:06;;;;;;;;;;;;;;;16.80;74.39;99372.73;105141;1259;80446;-60
2023/10/14 02:16:44;;;;;;;;;;;;;;;16.84;74.18;99371.98;105068;1259;72903;-60
2023/10/14 02:19:36;;;;;;;;;;;;;;;16.88;74.03;99367.48;105044;1259;69062;-60
2023/10/14 02:22:09;;;;;;;;;;;;;;;16.91;73.91;99363.36;105101;1262;69218;-60
2023/10/14 02:24:38;;;;;;;;;;;;;;;16.94;73.72;99362.77;105100;1260;75031;-60
2023/10/14 02:27:12;;;;;;;;;;;;;;;16.95;73.63;99360.69;105097;1262;82724;-60
2023/10/14 02:29:48;;;;;;;;;;;;;;;16.95;73.50;99357.19;105058;1262;71811;-60
2023/10/14 02:32:20;;;;;;;;;;;;;;;16.95;73.32;99355.80;104996;1261;69246;-60
2023/10/14 02:34:50;;;;;;;;;;;;;;;16.95;73.18;99357.22;105085;1262;69251;-60
2023/10/14 02:37:21;;;;;;;;;;;;;;;16.95;73.03;99359.15;105139;1262;73978;-60
2023/10/14 02:39:50;;;;;;;;;;;;;;;16.94;72.97;99359.89;105110;1262;81185;-60
2023/10/14 02:42:20;;;;;;;;;;;;;;;16.94;72.88;99359.86;105093;1259;73384;-60
2023/10/14 02:44:52;;;;;;;;;;;;;;;16.94;72.75;99365.06;105128;1258;69176;-60
2023/10/14 02:47:27;;;;;;;;;;;;;;;16.90;72.58;99364.48;105080;1262;69197;-60
2023/10/14 02:50:04;;;;;;;;;;;;;;;16.88;72.71;99364.50;105042;1264;75115;-60
2023/10/14 02:52:38;;;;;;;;;;;;;;;16.84;72.50;99360.89;105063;1262;82538;-60
2023/10/14 02:55:25;;;;;;;;;;;;;;;16.81;72.52;99361.31;105031;1260;71712;-60
2023/10/14 02:57:53;;;;;;;;;;;;;;;16.76;72.52;99364.52;105078;1260;69077;-60
2023/10/14 03:00:30;;;;;;;;;;;;;;;16.72;72.64;99362.31;105098;1260;69198;-60
2023/10/14 03:03:10;;;;;;;;;;;;;;;16.70;72.55;99363.91;105094;1260;75028;-60
2023/10/14 03:05:52;;;;;;;;;;;;;;;16.67;72.74;99370.88;105028;1260;81522;-60
2023/10/14 03:08:21;;;;;;;;;;;;;;;16.63;72.63;99362.84;105071;1262;72056;-60
2023/10/14 03:10:55;;;;;;;;;;;;;;;16.62;72.72;99359.94;105115;1262;69123;-60
2023/10/14 03:13:24;;;;;;;;;;;;;;;16.60;72.78;99365.55;105106;1260;69190;-60
2023/10/14 03:15:52;;;;;;;;;;;;;;;16.58;72.75;99362.20;105080;1259;73934;-60
2023/10/14 03:18:30;;;;;;;;;;;;;;;16.55;72.75;99355.22;105112;1262;82840;-60
2023/10/14 03:21:08;;;;;;;;;;;;;;;16.50;72.76;99351.69;105088;1260;71624;-60
2023/10/14 03:23:38;;;;;;;;;;;;;;;16.50;72.98;99354.23;105108;1258;69197;-60
2023/10/14 03:26:13;;;;;;;;;;;;;;;16.50;73.00;99353.66;105013;1264;69242;-60
2023/10/14 03:28:44;;;;;;;;;;;;;;;16.51;72.84;99352.16;105105;1260;73187;-60
2023/10/14 03:31:19;;;;;;;;;;;;;;;16.52;72.85;99350.54;105107;1261;82869;-60
2023/10/14 03:33:48;;;;;;;;;;;;;;;16.52;73.01;99348.06;105094;1258;72217;-59
2023/10/14 03:36:17;;;;;;;;;;;;;;;16.53;72.89;99349.72;105083;1258;69187;-60
2023/10/14 03:38:56;;;;;;;;;;;;;;;16.55;73.04;99343.43;105085;1258;69085;-60
2023/10/14 03:41:29;;;;;;;;;;;;;;;16.56;72.99;99336.10;105096;1260;72740;-60
2023/10/14 03:46:34;;;;;;;;;;;;;;;16.59;72.87;99327.09;105079;1260;73149;-60
2023/10/14 03:49:06;;;;;;;;;;;;;;;16.61;72.98;99316.13;105114;1262;69141;-60
2023/10/14 03:51:38;;;;;;;;;;;;;;;16.63;72.81;99313.84;105123;1260;69196;-60
2023/10/14 03:54:12;;;;;;;;;;;;;;;16.66;72.82;99312.89;105084;1260;73878;-60
2023/10/14 03:56:45;;;;;;;;;;;;;;;16.68;72.81;99305.15;105109;1261;80628;-60
2023/10/14 03:59:23;;;;;;;;;;;;;;;16.70;72.76;99307.67;105073;1258;72674;-61
2023/10/14 04:01:58;;;;;;;;;;;;;;;16.70;72.76;99304.27;105071;1260;69040;-60
2023/10/14 04:04:30;;;;;;;;;;;;;;;16.71;72.69;99302.45;105067;1260;69198;-60
2023/10/14 04:09:37;;;;;;;;;;;;;;;16.72;72.70;99300.27;105086;1262;82188;-60
2023/10/14 04:12:12;;;;;;;;;;;;;;;16.72;72.59;99301.63;105107;1259;73017;-60
2023/10/14 04:14:40;;;;;;;;;;;;;;;16.73;72.62;99295.90;105076;1261;69166;-60
2023/10/14 04:19:47;;;;;;;;;;;;;;;16.73;72.60;99284.98;105127;1259;74793;-61
2023/10/14 04:30:21;;;;;;;;;;;;;;;16.71;72.54;99277.55;105030;1262;69200;-60
2023/10/14 04:33:04;;;;;;;;;;;;;;;16.72;72.50;99282.80;105075;1262;74926;-60
2023/10/14 04:35:33;;;;;;;;;;;;;;;16.71;72.47;99280.60;105105;1262;82912;-60
2023/10/14 04:38:04;;;;;;;;;;;;;;;16.69;72.52;99277.91;105067;1260;73788;-60
2023/10/14 04:45:51;;;;;;;;;;;;;;;16.66;72.56;99291.71;105092;1260;73794;-60
2023/10/14 04:48:27;;;;;;;;;;;;;;;16.63;72.58;99283.68;105058;1262;80742;-60
2023/10/14 04:51:00;;;;;;;;;;;;;;;16.62;72.60;99283.98;105051;1262;71594;-60
2023/10/14 04:53:31;;;;;;;;;;;;;;;16.60;72.69;99276.85;105071;1259;69142;-60
2023/10/14 04:56:08;;;;;;;;;;;;;;;16.61;72.69;99277.67;104892;1264;69329;-60
2023/10/14 04:58:40;;;;;;;;;;;;;;;16.62;72.76;99275.69;105123;1263;73805;-60
2023/10/14 05:01:09;;;;;;;;;;;;;;;16.61;72.76;99273.13;105044;1260;82071;-60
2023/10/14 05:03:37;;;;;;;;;;;;;;;16.60;72.76;99272.08;105082;1262;71954;-60
2023/10/14 05:08:49;;;;;;;;;;;;;;;16.60;72.80;99263.64;105022;1263;69173;-60
2023/10/14 05:11:22;;;;;;;;;;;;;;;16.60;72.77;99266.98;105154;1259;73810;-60
2023/10/14 05:16:53;;;;;;;;;;;;;;;16.60;72.72;99252.19;105010;1262;71824;-60
2023/10/14 05:19:30;;;;;;;;;;;;;;;16.61;72.76;99255.30;104990;1260;69090;-60
2023/10/14 05:22:04;;;;;;;;;;;;;;;16.62;72.80;99257.50;105082;1262;69235;-60
2023/10/14 05:24:32;;;;;;;;;;;;;;;16.62;72.84;99255.05;105033;1262;74696;-60
2023/10/14 05:27:00;;;;;;;;;;;;;;;16.59;73.08;99263.21;105033;1262;82786;-60
2023/10/14 05:29:29;;;;;;;;;;;;;;;16.54;73.19;99261.15;105019;1260;72085;-60
2023/10/14 05:32:23;;;;;;;;;;;;;;;16.50;73.29;99263.59;105033;1260;69189;-60
2023/10/14 05:34:45;;;;;;;;;;;;;;;16.45;73.47;99263.06;104967;1262;69223;-60
2023/10/14 05:37:14;;;;;;;;;;;;;;;16.42;73.53;99264.20;104975;1262;73816;-60
2023/10/14 05:39:42;;;;;;;;;;;;;;;16.41;73.67;99268.38;104980;1263;82839;-60
2023/10/14 05:42:17;;;;;;;;;;;;;;;16.40;73.85;99273.83;104996;1261;73055;-60
2023/10/14 05:44:49;;;;;;;;;;;;;;;16.41;73.97;99271.36;104997;1262;69237;-61
2023/10/14 05:47:18;;;;;;;;;;;;;;;16.43;74.01;99269.79;105075;1262;69197;-60
2023/10/14 05:49:46;;;;;;;;;;;;;;;16.44;74.06;99265.80;105106;1262;75002;-60
2023/10/14 05:52:14;;;;;;;;;;;;;;;16.47;74.15;99273.15;105074;1262;81987;-60
2023/10/14 05:54:45;;;;;;;;;;;;;;;16.49;74.13;99274.36;105057;1262;71812;-61
2023/10/14 05:57:13;;;;;;;;;;;;;;;16.54;74.29;99278.39;105031;1259;69066;-60
2023/10/14 05:59:44;;;;;;;;;;;;;;;16.58;74.28;99279.69;104991;1262;69231;-60
2023/10/14 06:02:14;;;;;;;;;;;;;;;16.62;74.33;99278.53;105048;1264;74220;-60
2023/10/14 06:04:43;;;;;;;;;;;;;;;16.67;74.40;99281.79;104986;1262;82030;-60
2023/10/14 06:07:12;;;;;;;;;;;;;;;16.71;74.45;99280.73;104996;1260;71589;-60
2023/10/14 06:09:45;;;;;;;;;;;;;;;16.74;74.38;99279.95;105085;1264;69149;-60
2023/10/14 06:12:14;;;;;;;;;;;;;;;16.79;74.40;99280.89;105037;1260;69158;-60
2023/10/14 06:14:46;;;;;;;;;;;;;;;16.83;74.40;99285.98;104994;1263;74950;-60
2023/10/14 06:17:14;;;;;;;;;;;;;;;16.87;74.32;99289.39;105044;1261;81717;-60
2023/10/14 06:19:43;;;;;;;;;;;;;;;16.91;74.39;99292.61;105058;1262;73193;-60
2023/10/14 06:22:15;;;;;;;;;;;;;;;16.92;74.43;99293.33;104855;1260;229747;-60
2023/10/14 06:24:43;;;;;;;;;;;;;;;16.94;74.38;99298.28;105080;1263;69203;-60
2023/10/14 06:27:20;;;;;;;;;;;;;;;16.96;74.33;99301.36;105087;1262;75056;-60
2023/10/14 06:29:50;;;;;;;;;;;;;;;16.97;74.49;99298.63;105153;1263;81785;-60
2023/10/14 06:32:19;;;;;;;;;;;;;;;16.99;74.52;99300.27;105274;1260;71896;-62
2023/10/14 06:34:57;;;;;;;;;;;;;;;17.01;74.47;99305.23;105113;1259;69166;-59
2023/10/14 06:37:28;;;;;;;;;;;;;;;17.05;74.51;99302.77;105174;1260;69210;-63
2023/10/14 06:39:56;;;;;;;;;;;;;;;17.09;74.53;99304.17;105298;1262;73758;-60
2023/10/14 06:42:26;;;;;;;;;;;;;;;17.13;74.55;99300.88;105190;1262;81599;-61
2023/10/14 06:44:57;;;;;;;;;;;;;;;17.20;74.58;99303.48;105214;1260;72913;-59
2023/10/14 06:47:27;;;;;;;;;;;;;;;17.26;74.66;99296.07;105201;1262;69181;-61
2023/10/14 06:49:56;;;;;;;;;;;;;;;17.33;74.56;99291.48;105251;1262;69222;-62
2023/10/14 06:52:24;;;;;;;;;;;;;;;17.38;74.47;99297.94;105078;1260;72529;-59
2023/10/14 06:54:53;;;;;;;;;;;;;;;17.45;74.52;99299.13;105094;1262;82634;-59
2023/10/14 06:57:22;;;;;;;;;;;;;;;17.51;74.40;99300.37;105140;1262;72415;-59
2023/10/14 06:59:51;;;;;;;;;;;;;;;17.56;74.39;99297.78;105102;1264;69157;-59
2023/10/14 07:02:21;;;;;;;;;;;;;;;17.63;74.28;99292.49;105197;1262;69144;-59
2023/10/14 07:04:50;;;;;;;;;;;;;;;17.71;74.36;99291.45;105188;1263;74435;-60
2023/10/14 07:07:19;;;;;;;;;;;;;;;17.78;74.09;99284.34;105228;1260;81914;-60
2023/10/14 07:09:48;;;;;;;;;;;;;;;17.86;74.22;99284.02;105379;1263;73213;-59
2023/10/14 07:12:21;;;;;;;;;;;;;;;17.92;74.03;99281.06;105196;1263;69735;-60
2023/10/14 07:14:49;;;;;;;;;;;;;;;17.98;73.83;99277.35;105278;1261;69107;-60
2023/10/14 07:17:25;;;;;;;;;;;;;;;18.02;73.71;99280.52;105127;1260;75053;-59
2023/10/14 07:19:53;;;;;;;;;;;;;;;18.11;73.44;99281.95;105290;1259;81354;-60
2023/10/14 07:22:21;;;;;;;;;;;;;;;18.18;73.35;99288.77;105173;1263;73263;-61
2023/10/14 07:24:52;;;;;;;;;;;;;;;18.24;73.21;99289.07;105253;1264;69254;-61
2023/10/14 07:27:20;;;;;;;;;;;;;;;18.37;73.15;99290.44;105184;1260;69189;-61
2023/10/14 07:29:49;;;;;;;;;;;;;;;18.50;73.18;99290.04;105206;1262;74542;-61
2023/10/14 07:32:19;;;;;;;;;;;;;;;18.61;73.00;99288.13;105060;1265;82269;-62
2023/10/14 07:34:53;;;;;;;;;;;;;;;18.70;72.84;99294.92;105089;1259;73158;-63
2023/10/14 07:37:23;;;;;;;;;;;;;;;18.77;72.61;99286.98;105055;1259;69131;-61
2023/10/14 07:39:53;;;;;;;;;;;;;;;18.83;72.46;99286.41;105148;1259;69310;-62
2023/10/14 07:42:21;;;;;;;;;;;;;;;18.93;72.40;99289.96;105179;1264;74658;-62
2023/10/14 07:44:52;;;;;;;;;;;;;;;19.03;72.12;99289.23;105210;1260;80955;-62
2023/10/14 07:47:21;;;;;;;;;;;;;;;19.14;72.13;99289.84;105042;1263;70911;-62
2023/10/14 07:49:50;;;;;;;;;;;;;;;19.24;71.99;99286.80;105124;1262;69256;-63
2023/10/14 07:52:20;;;;;;;;;;;;;;;19.32;71.61;99287.11;105157;1262;69157;-62
2023/10/14 07:54:51;;;;;;;;;;;;;;;19.37;71.33;99287.20;105403;1259;74811;-61
2023/10/14 07:57:19;;;;;;;;;;;;;;;19.43;71.16;99299.30;105112;1264;80658;-62
2023/10/14 07:59:50;;;;;;;;;;;;;;;19.54;70.93;99302.15;105436;1263;72835;-63
2023/10/14 08:02:19;;;;;;;;;;;;;;;19.63;70.72;99300.30;105106;1260;69193;-63
2023/10/14 08:04:47;;;;;;;;;;;;;;;19.70;70.65;99298.26;105196;1262;69196;-62
2023/10/14 08:07:16;;;;;;;;;;;;;;;19.79;70.45;99299.64;105103;1271;72975;-62
2023/10/14 08:09:44;;;;;;;;;;;;;;;19.93;70.11;99293.80;105397;1262;82066;-62
2023/10/14 08:12:14;;;;;;;;;;;;;;;20.07;69.75;99299.69;105025;1261;72922;-63
2023/10/14 08:14:44;;;;;;;;;;;;;;;20.28;69.16;99301.11;105169;1261;69091;-63
2023/10/14 08:17:12;;;;;;;;;;;;;;;20.47;68.72;99300.92;105242;1271;69126;-62
2023/10/14 08:19:41;;;;;;;;;;;;;;;20.67;67.95;99302.79;105086;1262;75404;-62
2023/10/14 08:22:14;;;;;;;;;;;;;;;20.93;67.93;99305.32;105240;1263;82687;-62
2023/10/14 08:24:42;;;;;;;;;;;;;;;21.23;67.52;99298.00;105157;1262;70840;-62
2023/10/14 08:27:12;;;;;;;;;;;;;;;21.48;67.28;99307.20;105088;1262;69164;-63
2023/10/14 08:29:41;;;;;;;;;;;;;;;21.67;66.49;99310.31;105320;1262;69217;-63
2023/10/14 08:32:09;;;;;;;;;;;;;;;21.72;65.83;99312.28;105266;1264;74710;-61
2023/10/14 08:34:38;;;;;;;;;;;;;;;21.69;65.32;99308.17;105169;1262;82987;-60
2023/10/14 08:37:07;;;;;;;;;;;;;;;21.65;65.14;99298.96;105147;1263;73048;-62
2023/10/14 08:39:36;;;;;;;;;;;;;;;21.61;64.64;99303.13;105258;1263;69193;-62
2023/10/14 08:42:04;;;;;;;;;;;;;;;21.48;64.19;99308.83;105132;1271;69154;-61
2023/10/14 08:44:32;;;;;;;;;;;;;;;21.38;64.17;99315.72;105220;1261;74140;-62
2023/10/14 08:47:00;;;;;;;;;;;;;;;21.26;63.94;99322.05;105101;1264;82362;-61
2023/10/14 08:49:33;;;;;;;;;;;;;;;21.13;63.67;99331.45;105195;1263;72719;-62
2023/10/14 08:52:04;;;;;;;;;;;;;;;21.03;63.97;99339.56;105069;1262;69143;-62
2023/10/14 08:54:32;;;;;;;;;;;;;;;20.94;63.99;99350.19;105318;1262;69286;-62
2023/10/14 08:57:00;;;;;;;;;;;;;;;20.85;64.05;99350.34;105284;1261;73852;-63
2023/10/14 08:59:29;;;;;;;;;;;;;;;20.78;64.25;99375.88;105270;1263;83770;-63
2023/10/14 09:01:57;;;;;;;;;;;;;;;20.65;64.06;99385.67;105232;1260;71941;-63
2023/10/14 09:04:26;;;;;;;;;;;;;;;20.41;64.16;99392.33;105086;1260;69194;-62
2023/10/14 09:06:59;;;;;;;;;;;;;;;20.22;64.58;99395.17;105206;1261;69195;-63
2023/10/14 09:09:27;;;;;;;;;;;;;;;20.11;65.12;99404.17;105154;1264;74950;-63
2023/10/14 09:12:00;;;;;;;;;;;;;;;20.04;65.32;99393.23;105117;1262;81665;-62
2023/10/14 09:14:29;;;;;;;;;;;;;;;20.11;65.87;99393.58;105084;1264;71738;-63
2023/10/14 09:16:58;;;;;;;;;;;;;;;20.22;66.23;99397.80;105130;1261;69071;-63
2023/10/14 09:19:27;;;;;;;;;;;;;;;20.29;66.66;99404.99;105056;1263;69110;-63
2023/10/14 09:21:57;;;;;;;;;;;;;;;20.23;66.69;99410.13;105089;1261;74062;-62
2023/10/14 09:24:26;;;;;;;;;;;;;;;20.15;66.77;99416.42;105061;1262;82771;-63
2023/10/14 09:26:54;;;;;;;;;;;;;;;20.03;66.97;99422.08;105073;1260;70426;-63
2023/10/14 09:29:22;;;;;;;;;;;;;;;19.92;67.10;99432.00;105043;1259;69140;-63
2023/10/14 09:31:50;;;;;;;;;;;;;;;19.76;67.30;99438.77;105093;1262;69153;-63
2023/10/14 09:34:22;;;;;;;;;;;;;;;19.59;67.66;99450.30;105025;1261;75009;-63
2023/10/14 09:36:52;;;;;;;;;;;;;;;19.44;67.90;99450.94;105069;1264;82310;-63
2023/10/14 09:39:24;;;;;;;;;;;;;;;19.28;68.20;99448.86;105056;1262;71616;-63
2023/10/14 09:41:53;;;;;;;;;;;;;;;19.13;68.66;99448.73;105022;1270;69240;-63
2023/10/14 09:44:22;;;;;;;;;;;;;;;19.02;69.16;99458.45;105152;1261;69850;-63
2023/10/14 09:46:52;;;;;;;;;;;;;;;18.91;69.75;99467.83;105104;1260;75054;-63
2023/10/14 09:49:22;;;;;;;;;;;;;;;18.86;70.30;99472.20;105046;1263;81977;-63
2023/10/14 09:51:53;;;;;;;;;;;;;;;18.79;70.74;99477.58;105040;1261;72006;-63
2023/10/14 09:54:22;;;;;;;;;;;;;;;18.71;71.20;99486.14;105044;1263;69884;-63
2023/10/14 09:56:50;;;;;;;;;;;;;;;18.63;71.45;99486.89;105056;1264;69212;-63
2023/10/14 09:59:19;;;;;;;;;;;;;;;18.55;71.91;99488.60;105028;1260;73888;-63
2023/10/14 10:01:47;;;;;;;;;;;;;;;18.50;72.43;99492.02;105122;1260;81817;-63
2023/10/14 10:04:17;;;;;;;;;;;;;;;18.53;72.95;99498.70;105031;1259;70888;-63
2023/10/14 10:07:04;;;;;;;;;;;;;;;18.53;73.06;99504.70;105064;1264;69131;-63
2023/10/14 10:09:40;;;;;;;;;;;;;;;18.50;73.33;99514.67;105073;1264;69218;-63
2023/10/14 10:12:09;;;;;;;;;;;;;;;18.38;73.47;99516.19;104991;1260;73734;-63
2023/10/14 10:14:42;;;;;;;;;;;;;;;18.25;73.75;99532.79;105120;1263;82516;-63
2023/10/14 10:17:11;;;;;;;;;;;;;;;18.06;73.96;99536.15;105048;1262;72023;-63
2023/10/14 10:20:00;;;;;;;;;;;;;;;17.88;74.30;99543.14;105063;1260;69167;-63
2023/10/14 10:22:39;;;;;;;;;;;;;;;17.67;75.07;99542.34;105137;1261;69150;-63
2023/10/14 10:25:09;;;;;;;;;;;;;;;17.53;75.71;99546.42;105037;1263;73779;-63
2023/10/14 10:27:37;;;;;;;;;;;;;;;17.39;76.05;99544.23;105054;1262;81433;-64
2023/10/14 10:30:11;;;;;;;;;;;;;;;17.24;76.61;99548.05;105012;1261;71818;-63
2023/10/14 10:32:41;;;;;;;;;;;;;;;17.11;77.11;99555.00;105090;1259;69165;-63
2023/10/14 10:35:13;;;;;;;;;;;;;;;17.02;77.55;99560.12;105120;1259;69144;-63
2023/10/14 10:37:54;;;;;;;;;;;;;;;16.96;77.99;99563.24;105046;1263;74893;-63
2023/10/14 10:40:25;;;;;;;;;;;;;;;16.89;78.48;99570.27;105063;1262;81476;-63
2023/10/14 10:42:58;;;;;;;;;;;;;;;16.83;78.95;99577.70;105027;1262;72306;-63
2023/10/14 10:45:30;;;;;;;;;;;;;;;16.74;79.46;99589.75;105062;1260;69160;-64
2023/10/14 10:47:59;;;;;;;;;;;;;;;16.68;80.21;99592.87;105110;1260;69129;-64
2023/10/14 10:50:36;;;;;;;;;;;;;;;16.62;80.63;99596.48;105100;1260;74355;-65
2023/10/14 10:53:07;;;;;;;;;;;;;;;16.49;80.60;99599.20;105071;1261;82772;-65
2023/10/14 10:55:38;;;;;;;;;;;;;;;16.34;80.78;99606.54;105042;1261;72371;-64
2023/10/14 10:58:07;;;;;;;;;;;;;;;16.23;81.16;99601.13;105068;1263;69226;-65
2023/10/14 11:00:38;;;;;;;;;;;;;;;16.21;81.59;99602.17;105084;1264;69180;-67
2023/10/14 11:03:06;;;;;;;;;;;;;;;16.13;81.38;99618.81;105077;1260;73902;-66
2023/10/14 11:05:35;;;;;;;;;;;;;;;16.00;81.46;99631.71;105103;1264;81699;-66
2023/10/14 11:08:04;;;;;;;;;;;;;;;15.90;81.69;99639.80;105080;1261;71890;-64
2023/10/14 11:10:38;;;;;;;;;;;;;;;15.67;81.48;99645.11;105149;1260;69075;-63
2023/10/14 11:13:11;;;;;;;;;;;;;;;15.39;82.23;99646.15;105069;1263;69136;-63
2023/10/14 11:15:40;;;;;;;;;;;;;;;15.17;82.77;99648.77;105076;1260;75037;-63
2023/10/14 11:18:11;;;;;;;;;;;;;;;14.98;83.74;99647.05;105097;1262;81358;-63
2023/10/14 11:20:54;;;;;;;;;;;;;;;14.89;84.53;99654.84;105040;1260;72887;-63
2023/10/14 11:23:22;;;;;;;;;;;;;;;14.79;84.69;99669.95;105015;1261;69186;-63
2023/10/14 11:25:53;;;;;;;;;;;;;;;14.68;85.35;99676.27;105005;1264;69231;-63
2023/10/14 11:28:22;;;;;;;;;;;;;;;14.59;85.96;99676.89;105073;1261;74977;-62
2023/10/14 11:30:55;;;;;;;;;;;;;;;14.52;86.51;99682.26;105037;1263;81433;-62
2023/10/14 11:33:25;;;;;;;;;;;;;;;14.40;86.73;99694.95;105072;1266;70479;-62
2023/10/14 11:35:53;;;;;;;;;;;;;;;14.29;87.13;99699.52;105048;1261;69183;-62
2023/10/14 11:38:25;;;;;;;;;;;;;;;14.14;87.29;99702.23;105003;1263;69187;-62
2023/10/14 11:40:54;;;;;;;;;;;;;;;14.03;87.77;99701.00;105076;1262;74226;-63
2023/10/14 11:43:22;;;;;;;;;;;;;;;13.91;88.33;99704.85;105036;1261;81394;-63
2023/10/14 11:45:52;;;;;;;;;;;;;;;13.87;88.98;99713.23;105094;1264;71968;-64
2023/10/14 11:48:22;;;;;;;;;;;;;;;13.81;89.43;99713.38;105098;1260;69203;-62
2023/10/14 11:50:59;;;;;;;;;;;;;;;13.76;89.90;99707.52;105076;1262;69583;-63
2023/10/14 11:53:29;;;;;;;;;;;;;;;13.72;90.28;99718.00;105120;1262;73754;-63
2023/10/14 11:56:02;;;;;;;;;;;;;;;13.69;90.62;99726.23;105121;1262;82240;-61
2023/10/14 11:58:30;;;;;;;;;;;;;;;13.61;90.77;99729.52;105094;1261;71616;-62
2023/10/14 12:00:59;;;;;;;;;;;;;;;13.63;91.32;99734.52;105103;1262;69220;-61
2023/10/14 12:03:27;;;;;;;;;;;;;;;13.63;91.56;99735.54;105084;1261;69168;-61
2023/10/14 12:05:57;;;;;;;;;;;;;;;13.60;91.41;99732.77;105076;1260;73757;-61
2023/10/14 12:08:26;;;;;;;;;;;;;;;13.55;91.35;99737.45;105104;1262;82458;-60
2023/10/14 12:10:56;;;;;;;;;;;;;;;13.54;91.86;99742.44;105108;1261;73075;-60
2023/10/14 12:13:25;;;;;;;;;;;;;;;13.56;92.22;99751.79;105046;1263;69070;-60
2023/10/14 12:16:14;;;;;;;;;;;;;;;13.56;91.95;99759.86;105034;1264;69205;-60
2023/10/14 12:18:45;;;;;;;;;;;;;;;13.47;91.73;99761.81;105134;1261;73448;-60
2023/10/14 12:21:14;;;;;;;;;;;;;;;13.39;91.92;99760.85;105058;1262;81514;-60
2023/10/14 12:23:46;;;;;;;;;;;;;;;13.36;92.41;99764.02;105081;1260;70847;-60
2023/10/14 12:26:14;;;;;;;;;;;;;;;13.37;92.62;99777.32;105047;1261;69095;-60
2023/10/14 12:29:07;;;;;;;;;;;;;;;13.31;92.35;99782.54;105033;1263;69221;-60
2023/10/14 12:31:38;;;;;;;;;;;;;;;13.27;92.44;99788.57;105084;1260;73702;-60
2023/10/14 12:34:10;;;;;;;;;;;;;;;13.28;93.10;99785.91;105032;1264;81823;-60
2023/10/14 12:36:42;;;;;;;;;;;;;;;13.37;93.59;99781.65;105040;1260;73038;-60
2023/10/14 12:39:21;;;;;;;;;;;;;;;13.54;93.79;99788.90;105018;1261;69133;-60
2023/10/14 12:41:53;;;;;;;;;;;;;;;13.83;93.92;99785.45;105104;1263;69206;-60
2023/10/14 12:44:21;;;;;;;;;;;;;;;13.97;94.03;99781.08;105029;1260;73851;-60
2023/10/14 12:46:49;;;;;;;;;;;;;;;14.08;93.70;99782.73;104916;1265;81781;-60
2023/10/14 12:49:18;;;;;;;;;;;;;;;14.15;93.45;99782.95;105031;1260;73112;-60
2023/10/14 12:51:48;;;;;;;;;;;;;;;14.31;93.30;99781.95;105017;1259;69219;-61
2023/10/14 12:54:17;;;;;;;;;;;;;;;14.66;93.50;99777.38;105066;1261;69113;-62
2023/10/14 12:56:46;;;;;;;;;;;;;;;15.19;93.48;99780.95;105073;1263;73614;-61
2023/10/14 12:59:14;;;;;;;;;;;;;;;15.57;92.93;99789.17;105047;1264;81622;-61
2023/10/14 13:01:46;;;;;;;;;;;;;;;15.72;91.11;99787.79;105033;1259;73135;-61
2023/10/14 13:04:19;;;;;;;;;;;;;;;16.00;90.41;99777.80;105101;1264;69416;-62
2023/10/14 13:06:49;;;;;;;;;;;;;;;16.30;89.58;99774.80;105203;1260;69185;-62
2023/10/14 13:09:19;;;;;;;;;;;;;;;16.65;89.05;99768.79;105264;1262;73162;-63
2023/10/14 13:11:47;;;;;;;;;;;;;;;16.85;87.90;99767.38;105387;1259;81455;-63
2023/10/14 13:14:25;;;;;;;;;;;;;;;17.12;87.52;99772.25;105345;1260;71978;-62
2023/10/14 13:16:58;;;;;;;;;;;;;;;17.43;86.94;99773.08;105182;1262;69186;-62
2023/10/14 13:19:38;;;;;;;;;;;;;;;17.68;86.28;99778.86;105268;1259;69082;-62
2023/10/14 13:22:12;;;;;;;;;;;;;;;17.80;85.21;99780.23;105106;1262;75068;-62
2023/10/14 13:24:40;;;;;;;;;;;;;;;17.79;84.16;99782.53;105117;1262;82829;-61
2023/10/14 13:27:08;;;;;;;;;;;;;;;17.92;84.15;99783.16;105224;1262;71752;-62
2023/10/14 13:29:37;;;;;;;;;;;;;;;17.90;82.56;99788.66;105162;1259;69241;-61